sensor_id;sensor_type;location;lat;lon;timestamp;P1;durP1;ratioP1;P2;durP2;ratioP2
42518;SDS011;28147;47.520;18.920;2022-09-27T00:00:37;6.75;;;4.50;;
42518;SDS011;28147;47.520;18.920;2022-09-27T00:03:03;5.88;;;3.88;;
42518;SDS011;28147;47.520;18.920;2022-09-27T00:05:29;6.57;;;3.80;;
42518;SDS011;28147;47.520;18.920;2022-09-27T00:07:54;6.78;;;4.15;;
42518;SDS011;28147;47.520;18.920;2022-09-27T00:10:20;5.85;;;3.88;;
42518;SDS011;28147;47.520;18.920;2022-09-27T00:12:46;6.00;;;4.25;;
42518;SDS011;28147;47.520;18.920;2022-09-27T00:15:12;5.57;;;3.80;;
42518;SDS011;28147;47.520;18.920;2022-09-27T00:17:37;5.32;;;3.63;;
42518;SDS011;28147;47.520;18.920;2022-09-27T00:20:04;7.28;;;3.55;;
42518;SDS011;28147;47.520;18.920;2022-09-27T00:22:30;6.38;;;4.05;;
42518;SDS011;28147;47.520;18.920;2022-09-27T00:24:56;7.05;;;4.43;;
42518;SDS011;28147;47.520;18.920;2022-09-27T00:27:22;5.60;;;3.85;;
42518;SDS011;28147;47.520;18.920;2022-09-27T00:29:49;5.18;;;3.22;;
42518;SDS011;28147;47.520;18.920;2022-09-27T00:32:14;5.35;;;3.53;;
42518;SDS011;28147;47.520;18.920;2022-09-27T00:34:40;5.07;;;3.58;;
42518;SDS011;28147;47.520;18.920;2022-09-27T00:37:06;4.38;;;2.90;;
42518;SDS011;28147;47.520;18.920;2022-09-27T00:39:32;4.10;;;3.00;;
42518;SDS011;28147;47.520;18.920;2022-09-27T00:41:58;5.40;;;3.75;;
42518;SDS011;28147;47.520;18.920;2022-09-27T00:46:50;4.75;;;3.67;;
42518;SDS011;28147;47.520;18.920;2022-09-27T00:49:26;5.40;;;3.65;;
42518;SDS011;28147;47.520;18.920;2022-09-27T00:52:06;5.00;;;3.63;;
42518;SDS011;28147;47.520;18.920;2022-09-27T00:54:35;5.47;;;3.63;;
42518;SDS011;28147;47.520;18.920;2022-09-27T00:57:05;7.05;;;3.80;;
42518;SDS011;28147;47.520;18.920;2022-09-27T00:59:33;5.85;;;3.72;;
42518;SDS011;28147;47.520;18.920;2022-09-27T01:02:04;7.28;;;4.25;;
42518;SDS011;28147;47.520;18.920;2022-09-27T01:04:32;5.05;;;3.63;;
42518;SDS011;28147;47.520;18.920;2022-09-27T01:06:58;6.75;;;4.57;;
42518;SDS011;28147;47.520;18.920;2022-09-27T01:09:24;6.88;;;4.18;;
42518;SDS011;28147;47.520;18.920;2022-09-27T01:23:27;9.13;;;4.45;;
42518;SDS011;28147;47.520;18.920;2022-09-27T01:36:31;5.05;;;3.58;;
42518;SDS011;28147;47.520;18.920;2022-09-27T01:39:11;5.30;;;3.55;;
42518;SDS011;28147;47.520;18.920;2022-09-27T01:46:57;7.43;;;3.53;;
42518;SDS011;28147;47.520;18.920;2022-09-27T01:49:38;5.80;;;3.78;;
42518;SDS011;28147;47.520;18.920;2022-09-27T01:52:11;4.95;;;3.25;;
42518;SDS011;28147;47.520;18.920;2022-09-27T01:54:45;4.93;;;3.50;;
42518;SDS011;28147;47.520;18.920;2022-09-27T01:57:18;5.38;;;3.95;;
42518;SDS011;28147;47.520;18.920;2022-09-27T01:59:52;5.55;;;4.05;;
42518;SDS011;28147;47.520;18.920;2022-09-27T02:02:23;5.30;;;3.60;;
42518;SDS011;28147;47.520;18.920;2022-09-27T02:04:51;5.78;;;4.22;;
42518;SDS011;28147;47.520;18.920;2022-09-27T02:07:41;5.75;;;3.85;;
42518;SDS011;28147;47.520;18.920;2022-09-27T02:10:17;4.93;;;3.60;;
42518;SDS011;28147;47.520;18.920;2022-09-27T02:15:32;4.55;;;3.25;;
42518;SDS011;28147;47.520;18.920;2022-09-27T02:18:09;4.65;;;3.30;;
42518;SDS011;28147;47.520;18.920;2022-09-27T02:20:50;4.85;;;3.22;;
42518;SDS011;28147;47.520;18.920;2022-09-27T02:26:43;5.20;;;3.90;;
42518;SDS011;28147;47.520;18.920;2022-09-27T02:29:01;4.85;;;3.35;;
42518;SDS011;28147;47.520;18.920;2022-09-27T02:31:32;6.07;;;3.70;;
42518;SDS011;28147;47.520;18.920;2022-09-27T02:34:08;6.47;;;4.30;;
42518;SDS011;28147;47.520;18.920;2022-09-27T02:36:40;8.60;;;4.28;;
42518;SDS011;28147;47.520;18.920;2022-09-27T02:39:05;5.95;;;4.43;;
42518;SDS011;28147;47.520;18.920;2022-09-27T02:41:31;5.40;;;4.10;;
42518;SDS011;28147;47.520;18.920;2022-09-27T02:44:01;6.32;;;4.38;;
42518;SDS011;28147;47.520;18.920;2022-09-27T02:51:40;7.38;;;4.05;;
42518;SDS011;28147;47.520;18.920;2022-09-27T02:54:39;5.63;;;3.72;;
42518;SDS011;28147;47.520;18.920;2022-09-27T03:00:09;5.45;;;4.00;;
42518;SDS011;28147;47.520;18.920;2022-09-27T03:05:27;5.43;;;3.63;;
42518;SDS011;28147;47.520;18.920;2022-09-27T03:07:56;7.05;;;4.53;;
42518;SDS011;28147;47.520;18.920;2022-09-27T03:10:23;5.60;;;3.88;;
42518;SDS011;28147;47.520;18.920;2022-09-27T03:12:51;6.20;;;3.72;;
42518;SDS011;28147;47.520;18.920;2022-09-27T03:15:18;5.47;;;3.42;;
42518;SDS011;28147;47.520;18.920;2022-09-27T03:17:44;9.35;;;4.18;;
42518;SDS011;28147;47.520;18.920;2022-09-27T03:20:09;5.95;;;3.95;;
42518;SDS011;28147;47.520;18.920;2022-09-27T03:22:35;8.43;;;3.95;;
42518;SDS011;28147;47.520;18.920;2022-09-27T03:25:02;5.63;;;3.72;;
42518;SDS011;28147;47.520;18.920;2022-09-27T03:27:28;8.70;;;4.85;;
42518;SDS011;28147;47.520;18.920;2022-09-27T03:29:54;5.85;;;4.45;;
42518;SDS011;28147;47.520;18.920;2022-09-27T03:32:19;6.80;;;4.65;;
42518;SDS011;28147;47.520;18.920;2022-09-27T03:34:44;8.32;;;5.20;;
42518;SDS011;28147;47.520;18.920;2022-09-27T03:37:10;6.80;;;4.60;;
42518;SDS011;28147;47.520;18.920;2022-09-27T03:39:35;8.27;;;5.22;;
42518;SDS011;28147;47.520;18.920;2022-09-27T03:42:01;6.45;;;5.18;;
42518;SDS011;28147;47.520;18.920;2022-09-27T03:44:26;7.72;;;5.20;;
42518;SDS011;28147;47.520;18.920;2022-09-27T03:46:52;9.00;;;5.72;;
42518;SDS011;28147;47.520;18.920;2022-09-27T03:49:17;7.20;;;4.93;;
42518;SDS011;28147;47.520;18.920;2022-09-27T03:51:43;7.00;;;4.90;;
42518;SDS011;28147;47.520;18.920;2022-09-27T03:54:09;9.88;;;5.60;;
42518;SDS011;28147;47.520;18.920;2022-09-27T03:56:34;8.63;;;5.35;;
42518;SDS011;28147;47.520;18.920;2022-09-27T03:59:00;8.43;;;4.93;;
42518;SDS011;28147;47.520;18.920;2022-09-27T04:01:25;7.30;;;5.00;;
42518;SDS011;28147;47.520;18.920;2022-09-27T04:03:51;8.32;;;5.47;;
42518;SDS011;28147;47.520;18.920;2022-09-27T04:06:17;6.65;;;4.55;;
42518;SDS011;28147;47.520;18.920;2022-09-27T04:08:43;7.30;;;5.05;;
42518;SDS011;28147;47.520;18.920;2022-09-27T04:11:09;8.63;;;5.60;;
42518;SDS011;28147;47.520;18.920;2022-09-27T04:13:35;7.70;;;5.53;;
42518;SDS011;28147;47.520;18.920;2022-09-27T04:16:01;7.43;;;5.55;;
42518;SDS011;28147;47.520;18.920;2022-09-27T04:18:27;9.40;;;5.75;;
42518;SDS011;28147;47.520;18.920;2022-09-27T04:20:52;8.25;;;5.65;;
42518;SDS011;28147;47.520;18.920;2022-09-27T04:23:18;10.90;;;5.78;;
42518;SDS011;28147;47.520;18.920;2022-09-27T04:25:44;8.00;;;5.43;;
42518;SDS011;28147;47.520;18.920;2022-09-27T04:28:10;9.57;;;5.35;;
42518;SDS011;28147;47.520;18.920;2022-09-27T04:30:37;8.43;;;5.38;;
42518;SDS011;28147;47.520;18.920;2022-09-27T04:33:02;9.10;;;5.60;;
42518;SDS011;28147;47.520;18.920;2022-09-27T04:35:27;8.55;;;6.13;;
42518;SDS011;28147;47.520;18.920;2022-09-27T04:38:12;7.03;;;5.03;;
42518;SDS011;28147;47.520;18.920;2022-09-27T04:40:38;8.10;;;5.22;;
42518;SDS011;28147;47.520;18.920;2022-09-27T04:43:05;8.27;;;5.53;;
42518;SDS011;28147;47.520;18.920;2022-09-27T04:45:30;8.38;;;5.88;;
42518;SDS011;28147;47.520;18.920;2022-09-27T04:47:55;8.93;;;6.20;;
42518;SDS011;28147;47.520;18.920;2022-09-27T04:50:21;14.93;;;7.53;;
42518;SDS011;28147;47.520;18.920;2022-09-27T04:52:50;7.97;;;5.68;;
42518;SDS011;28147;47.520;18.920;2022-09-27T04:55:16;12.18;;;5.95;;
42518;SDS011;28147;47.520;18.920;2022-09-27T04:57:42;10.63;;;6.80;;
42518;SDS011;28147;47.520;18.920;2022-09-27T05:00:08;10.95;;;6.50;;
42518;SDS011;28147;47.520;18.920;2022-09-27T05:02:34;11.07;;;6.78;;
42518;SDS011;28147;47.520;18.920;2022-09-27T05:04:59;8.70;;;5.72;;
42518;SDS011;28147;47.520;18.920;2022-09-27T05:07:25;9.43;;;5.65;;
42518;SDS011;28147;47.520;18.920;2022-09-27T05:09:51;11.18;;;6.32;;
42518;SDS011;28147;47.520;18.920;2022-09-27T05:12:17;9.55;;;6.68;;
42518;SDS011;28147;47.520;18.920;2022-09-27T05:14:43;8.95;;;6.20;;
42518;SDS011;28147;47.520;18.920;2022-09-27T05:17:09;9.35;;;6.28;;
42518;SDS011;28147;47.520;18.920;2022-09-27T05:19:35;9.02;;;5.65;;
42518;SDS011;28147;47.520;18.920;2022-09-27T05:22:03;12.93;;;6.88;;
42518;SDS011;28147;47.520;18.920;2022-09-27T05:24:32;8.02;;;5.65;;
42518;SDS011;28147;47.520;18.920;2022-09-27T05:26:58;8.38;;;5.45;;
42518;SDS011;28147;47.520;18.920;2022-09-27T05:29:24;9.43;;;6.80;;
42518;SDS011;28147;47.520;18.920;2022-09-27T05:31:50;8.48;;;5.55;;
42518;SDS011;28147;47.520;18.920;2022-09-27T05:34:16;8.43;;;6.15;;
42518;SDS011;28147;47.520;18.920;2022-09-27T05:36:45;9.68;;;6.80;;
42518;SDS011;28147;47.520;18.920;2022-09-27T05:39:11;10.90;;;6.63;;
42518;SDS011;28147;47.520;18.920;2022-09-27T05:41:37;9.25;;;6.85;;
42518;SDS011;28147;47.520;18.920;2022-09-27T05:44:04;9.68;;;6.32;;
42518;SDS011;28147;47.520;18.920;2022-09-27T05:46:29;9.73;;;6.55;;
42518;SDS011;28147;47.520;18.920;2022-09-27T05:48:55;9.25;;;6.03;;
42518;SDS011;28147;47.520;18.920;2022-09-27T05:51:20;11.32;;;6.40;;
42518;SDS011;28147;47.520;18.920;2022-09-27T05:53:47;8.65;;;5.90;;
42518;SDS011;28147;47.520;18.920;2022-09-27T05:56:12;8.77;;;5.95;;
42518;SDS011;28147;47.520;18.920;2022-09-27T05:58:38;9.57;;;6.85;;
42518;SDS011;28147;47.520;18.920;2022-09-27T06:01:06;10.07;;;6.15;;
42518;SDS011;28147;47.520;18.920;2022-09-27T06:03:33;8.73;;;6.43;;
42518;SDS011;28147;47.520;18.920;2022-09-27T06:06:02;7.55;;;5.53;;
42518;SDS011;28147;47.520;18.920;2022-09-27T06:08:33;9.00;;;6.07;;
42518;SDS011;28147;47.520;18.920;2022-09-27T06:11:01;9.25;;;6.32;;
42518;SDS011;28147;47.520;18.920;2022-09-27T06:13:30;11.25;;;7.18;;
42518;SDS011;28147;47.520;18.920;2022-09-27T06:15:57;10.95;;;7.13;;
42518;SDS011;28147;47.520;18.920;2022-09-27T06:18:23;7.43;;;5.40;;
42518;SDS011;28147;47.520;18.920;2022-09-27T06:20:48;7.00;;;4.65;;
42518;SDS011;28147;47.520;18.920;2022-09-27T06:23:15;8.57;;;5.00;;
42518;SDS011;28147;47.520;18.920;2022-09-27T06:25:42;6.95;;;5.10;;
42518;SDS011;28147;47.520;18.920;2022-09-27T06:28:09;8.02;;;5.13;;
42518;SDS011;28147;47.520;18.920;2022-09-27T06:30:39;7.45;;;5.45;;
42518;SDS011;28147;47.520;18.920;2022-09-27T06:33:05;9.63;;;6.55;;
42518;SDS011;28147;47.520;18.920;2022-09-27T06:35:33;7.85;;;5.88;;
42518;SDS011;28147;47.520;18.920;2022-09-27T06:38:09;10.20;;;6.32;;
42518;SDS011;28147;47.520;18.920;2022-09-27T06:40:36;10.73;;;6.70;;
42518;SDS011;28147;47.520;18.920;2022-09-27T06:43:06;11.13;;;7.55;;
42518;SDS011;28147;47.520;18.920;2022-09-27T06:45:34;12.98;;;6.40;;
42518;SDS011;28147;47.520;18.920;2022-09-27T06:48:09;11.65;;;6.65;;
42518;SDS011;28147;47.520;18.920;2022-09-27T06:50:37;9.65;;;6.68;;
42518;SDS011;28147;47.520;18.920;2022-09-27T06:53:04;10.95;;;6.93;;
42518;SDS011;28147;47.520;18.920;2022-09-27T06:55:30;13.68;;;8.35;;
42518;SDS011;28147;47.520;18.920;2022-09-27T06:57:56;11.40;;;8.15;;
42518;SDS011;28147;47.520;18.920;2022-09-27T07:00:42;13.13;;;9.13;;
42518;SDS011;28147;47.520;18.920;2022-09-27T07:03:08;12.82;;;8.90;;
42518;SDS011;28147;47.520;18.920;2022-09-27T07:05:38;12.98;;;8.88;;
42518;SDS011;28147;47.520;18.920;2022-09-27T07:08:08;13.70;;;9.35;;
42518;SDS011;28147;47.520;18.920;2022-09-27T07:10:36;14.80;;;9.18;;
42518;SDS011;28147;47.520;18.920;2022-09-27T07:13:03;13.73;;;9.23;;
42518;SDS011;28147;47.520;18.920;2022-09-27T07:15:30;15.00;;;9.30;;
42518;SDS011;28147;47.520;18.920;2022-09-27T07:17:56;15.43;;;9.52;;
42518;SDS011;28147;47.520;18.920;2022-09-27T07:20:25;12.85;;;9.52;;
42518;SDS011;28147;47.520;18.920;2022-09-27T07:22:51;15.30;;;9.27;;
42518;SDS011;28147;47.520;18.920;2022-09-27T07:25:17;15.32;;;9.98;;
42518;SDS011;28147;47.520;18.920;2022-09-27T07:27:43;16.52;;;9.18;;
42518;SDS011;28147;47.520;18.920;2022-09-27T07:30:09;14.70;;;9.77;;
42518;SDS011;28147;47.520;18.920;2022-09-27T07:32:36;17.10;;;10.43;;
42518;SDS011;28147;47.520;18.920;2022-09-27T07:35:02;17.05;;;11.25;;
42518;SDS011;28147;47.520;18.920;2022-09-27T07:37:35;15.68;;;10.30;;
42518;SDS011;28147;47.520;18.920;2022-09-27T07:40:03;15.18;;;10.43;;
42518;SDS011;28147;47.520;18.920;2022-09-27T07:42:31;11.80;;;6.70;;
42518;SDS011;28147;47.520;18.920;2022-09-27T07:44:57;15.50;;;10.27;;
42518;SDS011;28147;47.520;18.920;2022-09-27T07:47:32;15.80;;;10.18;;
42518;SDS011;28147;47.520;18.920;2022-09-27T07:50:08;13.98;;;9.10;;
42518;SDS011;28147;47.520;18.920;2022-09-27T07:52:41;13.70;;;8.90;;
42518;SDS011;28147;47.520;18.920;2022-09-27T07:55:08;15.07;;;9.35;;
42518;SDS011;28147;47.520;18.920;2022-09-27T07:57:34;12.95;;;8.90;;
42518;SDS011;28147;47.520;18.920;2022-09-27T08:00:01;13.30;;;8.75;;
42518;SDS011;28147;47.520;18.920;2022-09-27T08:02:31;15.40;;;8.18;;
42518;SDS011;28147;47.520;18.920;2022-09-27T08:04:57;11.07;;;7.40;;
42518;SDS011;28147;47.520;18.920;2022-09-27T08:07:23;12.77;;;8.43;;
42518;SDS011;28147;47.520;18.920;2022-09-27T08:09:49;13.85;;;8.80;;
42518;SDS011;28147;47.520;18.920;2022-09-27T08:12:15;15.55;;;9.40;;
42518;SDS011;28147;47.520;18.920;2022-09-27T08:14:41;18.52;;;11.05;;
42518;SDS011;28147;47.520;18.920;2022-09-27T08:17:09;16.35;;;10.38;;
42518;SDS011;28147;47.520;18.920;2022-09-27T08:19:35;14.40;;;9.18;;
42518;SDS011;28147;47.520;18.920;2022-09-27T08:22:00;13.82;;;8.80;;
42518;SDS011;28147;47.520;18.920;2022-09-27T08:24:26;14.07;;;8.68;;
42518;SDS011;28147;47.520;18.920;2022-09-27T08:26:52;12.48;;;8.40;;
42518;SDS011;28147;47.520;18.920;2022-09-27T08:29:17;12.07;;;8.65;;
42518;SDS011;28147;47.520;18.920;2022-09-27T08:31:43;15.00;;;9.77;;
42518;SDS011;28147;47.520;18.920;2022-09-27T08:34:08;15.57;;;9.90;;
42518;SDS011;28147;47.520;18.920;2022-09-27T08:36:33;14.45;;;9.98;;
42518;SDS011;28147;47.520;18.920;2022-09-27T08:39:01;13.85;;;9.30;;
42518;SDS011;28147;47.520;18.920;2022-09-27T08:47:10;13.60;;;8.80;;
42518;SDS011;28147;47.520;18.920;2022-09-27T08:52:35;14.63;;;8.70;;
42518;SDS011;28147;47.520;18.920;2022-09-27T08:55:16;13.02;;;8.65;;
42518;SDS011;28147;47.520;18.920;2022-09-27T08:57:49;15.77;;;10.38;;
42518;SDS011;28147;47.520;18.920;2022-09-27T09:00:19;13.98;;;9.93;;
42518;SDS011;28147;47.520;18.920;2022-09-27T09:02:45;13.48;;;9.00;;
42518;SDS011;28147;47.520;18.920;2022-09-27T09:05:12;13.65;;;10.07;;
42518;SDS011;28147;47.520;18.920;2022-09-27T09:13:47;12.57;;;9.02;;
42518;SDS011;28147;47.520;18.920;2022-09-27T09:19:14;13.95;;;9.02;;
42518;SDS011;28147;47.520;18.920;2022-09-27T09:24:20;13.85;;;9.88;;
42518;SDS011;28147;47.520;18.920;2022-09-27T09:32:49;13.07;;;8.77;;
42518;SDS011;28147;47.520;18.920;2022-09-27T09:35:34;13.18;;;8.68;;
42518;SDS011;28147;47.520;18.920;2022-09-27T09:38:04;11.50;;;8.32;;
42518;SDS011;28147;47.520;18.920;2022-09-27T09:41:01;14.75;;;8.77;;
42518;SDS011;28147;47.520;18.920;2022-09-27T09:43:36;14.82;;;8.40;;
42518;SDS011;28147;47.520;18.920;2022-09-27T09:46:09;13.85;;;9.18;;
42518;SDS011;28147;47.520;18.920;2022-09-27T09:48:49;12.43;;;8.43;;
42518;SDS011;28147;47.520;18.920;2022-09-27T09:51:24;14.30;;;8.25;;
42518;SDS011;28147;47.520;18.920;2022-09-27T09:53:54;12.52;;;8.45;;
42518;SDS011;28147;47.520;18.920;2022-09-27T09:56:32;13.48;;;9.07;;
42518;SDS011;28147;47.520;18.920;2022-09-27T09:59:00;11.82;;;7.90;;
42518;SDS011;28147;47.520;18.920;2022-09-27T10:01:41;11.43;;;7.68;;
42518;SDS011;28147;47.520;18.920;2022-09-27T10:04:14;14.07;;;8.88;;
42518;SDS011;28147;47.520;18.920;2022-09-27T10:06:45;14.18;;;8.88;;
42518;SDS011;28147;47.520;18.920;2022-09-27T10:09:12;14.95;;;8.60;;
42518;SDS011;28147;47.520;18.920;2022-09-27T10:11:40;15.88;;;9.25;;
42518;SDS011;28147;47.520;18.920;2022-09-27T10:14:10;15.13;;;9.60;;
42518;SDS011;28147;47.520;18.920;2022-09-27T10:16:38;12.88;;;8.90;;
42518;SDS011;28147;47.520;18.920;2022-09-27T10:19:06;13.27;;;8.75;;
42518;SDS011;28147;47.520;18.920;2022-09-27T10:21:33;16.52;;;9.75;;
42518;SDS011;28147;47.520;18.920;2022-09-27T10:26:40;14.45;;;8.93;;
42518;SDS011;28147;47.520;18.920;2022-09-27T10:31:51;15.57;;;10.25;;
42518;SDS011;28147;47.520;18.920;2022-09-27T10:37:20;16.65;;;11.40;;
42518;SDS011;28147;47.520;18.920;2022-09-27T10:39:48;16.40;;;11.90;;
42518;SDS011;28147;47.520;18.920;2022-09-27T10:42:34;18.80;;;11.35;;
42518;SDS011;28147;47.520;18.920;2022-09-27T10:47:46;14.98;;;10.20;;
42518;SDS011;28147;47.520;18.920;2022-09-27T10:50:19;14.63;;;9.85;;
42518;SDS011;28147;47.520;18.920;2022-09-27T10:52:51;14.82;;;9.25;;
42518;SDS011;28147;47.520;18.920;2022-09-27T10:55:31;18.63;;;10.70;;
42518;SDS011;28147;47.520;18.920;2022-09-27T10:58:00;13.88;;;9.65;;
42518;SDS011;28147;47.520;18.920;2022-09-27T11:00:32;15.60;;;11.00;;
42518;SDS011;28147;47.520;18.920;2022-09-27T11:03:04;15.50;;;11.02;;
42518;SDS011;28147;47.520;18.920;2022-09-27T11:05:37;17.08;;;11.25;;
42518;SDS011;28147;47.520;18.920;2022-09-27T11:11:32;18.05;;;11.57;;
42518;SDS011;28147;47.520;18.920;2022-09-27T11:13:38;15.55;;;9.45;;
42518;SDS011;28147;47.520;18.920;2022-09-27T11:16:15;16.33;;;10.70;;
42518;SDS011;28147;47.520;18.920;2022-09-27T11:26:47;12.45;;;8.13;;
42518;SDS011;28147;47.520;18.920;2022-09-27T11:34:56;14.68;;;7.70;;
42518;SDS011;28147;47.520;18.920;2022-09-27T11:53:34;12.10;;;7.45;;
42518;SDS011;28147;47.520;18.920;2022-09-27T11:56:22;12.48;;;7.30;;
42518;SDS011;28147;47.520;18.920;2022-09-27T12:01:53;10.80;;;7.13;;
42518;SDS011;28147;47.520;18.920;2022-09-27T12:05:11;10.00;;;6.35;;
42518;SDS011;28147;47.520;18.920;2022-09-27T12:10:16;10.48;;;6.47;;
42518;SDS011;28147;47.520;18.920;2022-09-27T12:12:43;9.65;;;5.93;;
42518;SDS011;28147;47.520;18.920;2022-09-27T12:17:45;10.63;;;6.70;;
42518;SDS011;28147;47.520;18.920;2022-09-27T12:22:59;10.13;;;6.63;;
42518;SDS011;28147;47.520;18.920;2022-09-27T12:25:35;11.60;;;7.03;;
42518;SDS011;28147;47.520;18.920;2022-09-27T12:28:17;11.25;;;7.72;;
42518;SDS011;28147;47.520;18.920;2022-09-27T12:30:47;10.50;;;6.35;;
42518;SDS011;28147;47.520;18.920;2022-09-27T12:35:53;11.00;;;7.13;;
42518;SDS011;28147;47.520;18.920;2022-09-27T12:41:01;12.07;;;7.50;;
42518;SDS011;28147;47.520;18.920;2022-09-27T12:43:31;12.25;;;8.35;;
42518;SDS011;28147;47.520;18.920;2022-09-27T12:49:35;13.57;;;8.00;;
42518;SDS011;28147;47.520;18.920;2022-09-27T12:51:58;12.50;;;7.60;;
42518;SDS011;28147;47.520;18.920;2022-09-27T13:02:54;9.77;;;6.30;;
42518;SDS011;28147;47.520;18.920;2022-09-27T13:05:49;7.68;;;5.10;;
42518;SDS011;28147;47.520;18.920;2022-09-27T13:14:09;10.65;;;5.43;;
42518;SDS011;28147;47.520;18.920;2022-09-27T13:16:43;10.30;;;5.25;;
42518;SDS011;28147;47.520;18.920;2022-09-27T13:22:03;8.43;;;4.68;;
42518;SDS011;28147;47.520;18.920;2022-09-27T13:24:47;7.47;;;4.90;;
42518;SDS011;28147;47.520;18.920;2022-09-27T13:32:31;9.70;;;4.88;;
42518;SDS011;28147;47.520;18.920;2022-09-27T13:35:08;6.43;;;4.50;;
42518;SDS011;28147;47.520;18.920;2022-09-27T13:37:53;7.93;;;4.85;;
42518;SDS011;28147;47.520;18.920;2022-09-27T13:48:44;9.02;;;5.43;;
42518;SDS011;28147;47.520;18.920;2022-09-27T13:56:57;2.33;;;1.17;;
42518;SDS011;28147;47.520;18.920;2022-09-27T13:59:41;1.95;;;1.00;;
42518;SDS011;28147;47.520;18.920;2022-09-27T14:02:19;2.17;;;1.00;;
42518;SDS011;28147;47.520;18.920;2022-09-27T14:04:49;1.33;;;0.80;;
42518;SDS011;28147;47.520;18.920;2022-09-27T14:07:17;1.42;;;0.77;;
42518;SDS011;28147;47.520;18.920;2022-09-27T14:09:48;3.08;;;1.27;;
42518;SDS011;28147;47.520;18.920;2022-09-27T14:12:18;1.42;;;0.98;;
42518;SDS011;28147;47.520;18.920;2022-09-27T14:14:45;2.75;;;0.60;;
42518;SDS011;28147;47.520;18.920;2022-09-27T14:17:13;1.50;;;0.60;;
42518;SDS011;28147;47.520;18.920;2022-09-27T14:19:40;1.00;;;0.63;;
42518;SDS011;28147;47.520;18.920;2022-09-27T14:22:15;0.93;;;0.57;;
42518;SDS011;28147;47.520;18.920;2022-09-27T14:24:51;1.05;;;0.75;;
42518;SDS011;28147;47.520;18.920;2022-09-27T14:27:25;0.60;;;0.40;;
42518;SDS011;28147;47.520;18.920;2022-09-27T14:29:57;0.45;;;0.35;;
42518;SDS011;28147;47.520;18.920;2022-09-27T14:32:27;1.20;;;0.60;;
42518;SDS011;28147;47.520;18.920;2022-09-27T14:38:05;0.20;;;0.20;;
42518;SDS011;28147;47.520;18.920;2022-09-27T14:43:17;0.68;;;0.30;;
42518;SDS011;28147;47.520;18.920;2022-09-27T14:45:44;2.13;;;1.05;;
42518;SDS011;28147;47.520;18.920;2022-09-27T14:50:57;1.17;;;0.40;;
42518;SDS011;28147;47.520;18.920;2022-09-27T14:56:23;0.32;;;0.32;;
42518;SDS011;28147;47.520;18.920;2022-09-27T14:58:57;0.30;;;0.20;;
42518;SDS011;28147;47.520;18.920;2022-09-27T15:01:26;0.73;;;0.30;;
42518;SDS011;28147;47.520;18.920;2022-09-27T15:03:52;0.30;;;0.30;;
42518;SDS011;28147;47.520;18.920;2022-09-27T15:06:20;1.23;;;0.57;;
42518;SDS011;28147;47.520;18.920;2022-09-27T15:08:46;0.20;;;0.20;;
42518;SDS011;28147;47.520;18.920;2022-09-27T15:11:14;0.43;;;0.30;;
42518;SDS011;28147;47.520;18.920;2022-09-27T15:13:41;1.95;;;0.50;;
42518;SDS011;28147;47.520;18.920;2022-09-27T15:16:10;0.70;;;0.35;;
42518;SDS011;28147;47.520;18.920;2022-09-27T15:18:42;0.20;;;0.20;;
42518;SDS011;28147;47.520;18.920;2022-09-27T15:21:13;0.60;;;0.20;;
42518;SDS011;28147;47.520;18.920;2022-09-27T15:23:55;0.10;;;0.10;;
42518;SDS011;28147;47.520;18.920;2022-09-27T15:29:00;0.17;;;0.17;;
42518;SDS011;28147;47.520;18.920;2022-09-27T15:31:32;0.63;;;0.30;;
42518;SDS011;28147;47.520;18.920;2022-09-27T15:33:59;0.20;;;0.20;;
42518;SDS011;28147;47.520;18.920;2022-09-27T15:39:25;0.20;;;0.20;;
42518;SDS011;28147;47.520;18.920;2022-09-27T15:42:01;0.25;;;0.15;;
42518;SDS011;28147;47.520;18.920;2022-09-27T15:50:30;0.30;;;0.30;;
42518;SDS011;28147;47.520;18.920;2022-09-27T15:52:50;0.25;;;0.17;;
42518;SDS011;28147;47.520;18.920;2022-09-27T15:55:25;0.32;;;0.10;;
42518;SDS011;28147;47.520;18.920;2022-09-27T16:00:23;0.20;;;0.20;;
42518;SDS011;28147;47.520;18.920;2022-09-27T16:02:49;0.20;;;0.20;;
42518;SDS011;28147;47.520;18.920;2022-09-27T16:05:14;0.20;;;0.20;;
42518;SDS011;28147;47.520;18.920;2022-09-27T16:07:39;0.45;;;0.28;;
42518;SDS011;28147;47.520;18.920;2022-09-27T16:10:26;0.43;;;0.30;;
42518;SDS011;28147;47.520;18.920;2022-09-27T16:12:59;0.20;;;0.20;;
42518;SDS011;28147;47.520;18.920;2022-09-27T16:15:24;0.17;;;0.17;;
42518;SDS011;28147;47.520;18.920;2022-09-27T16:17:50;0.15;;;0.15;;
42518;SDS011;28147;47.520;18.920;2022-09-27T16:20:19;1.23;;;0.20;;
42518;SDS011;28147;47.520;18.920;2022-09-27T16:22:51;1.65;;;1.27;;
42518;SDS011;28147;47.520;18.920;2022-09-27T16:25:18;0.35;;;0.30;;
42518;SDS011;28147;47.520;18.920;2022-09-27T16:27:43;0.30;;;0.30;;
42518;SDS011;28147;47.520;18.920;2022-09-27T16:30:09;0.50;;;0.40;;
42518;SDS011;28147;47.520;18.920;2022-09-27T16:32:42;0.20;;;0.20;;
42518;SDS011;28147;47.520;18.920;2022-09-27T16:35:09;0.30;;;0.30;;
42518;SDS011;28147;47.520;18.920;2022-09-27T16:37:36;0.50;;;0.30;;
42518;SDS011;28147;47.520;18.920;2022-09-27T16:40:05;0.50;;;0.30;;
42518;SDS011;28147;47.520;18.920;2022-09-27T16:42:32;0.30;;;0.28;;
42518;SDS011;28147;47.520;18.920;2022-09-27T16:44:58;0.20;;;0.20;;
42518;SDS011;28147;47.520;18.920;2022-09-27T16:47:25;1.08;;;0.50;;
42518;SDS011;28147;47.520;18.920;2022-09-27T16:49:51;0.80;;;0.40;;
42518;SDS011;28147;47.520;18.920;2022-09-27T16:52:35;0.43;;;0.40;;
42518;SDS011;28147;47.520;18.920;2022-09-27T16:55:01;0.75;;;0.45;;
42518;SDS011;28147;47.520;18.920;2022-09-27T16:57:26;0.30;;;0.20;;
42518;SDS011;28147;47.520;18.920;2022-09-27T16:59:57;2.63;;;0.73;;
42518;SDS011;28147;47.520;18.920;2022-09-27T17:02:23;1.23;;;0.60;;
42518;SDS011;28147;47.520;18.920;2022-09-27T17:04:48;0.52;;;0.35;;
42518;SDS011;28147;47.520;18.920;2022-09-27T17:07:14;0.43;;;0.35;;
42518;SDS011;28147;47.520;18.920;2022-09-27T17:09:40;2.80;;;0.60;;
42518;SDS011;28147;47.520;18.920;2022-09-27T17:12:06;1.00;;;0.40;;
42518;SDS011;28147;47.520;18.920;2022-09-27T17:14:31;3.13;;;0.90;;
42518;SDS011;28147;47.520;18.920;2022-09-27T17:16:57;0.50;;;0.32;;
42518;SDS011;28147;47.520;18.920;2022-09-27T17:19:22;1.67;;;0.68;;
42518;SDS011;28147;47.520;18.920;2022-09-27T17:21:48;0.80;;;0.40;;
42518;SDS011;28147;47.520;18.920;2022-09-27T17:24:14;1.55;;;0.93;;
42518;SDS011;28147;47.520;18.920;2022-09-27T17:26:40;1.55;;;0.85;;
42518;SDS011;28147;47.520;18.920;2022-09-27T17:29:05;0.40;;;0.40;;
42518;SDS011;28147;47.520;18.920;2022-09-27T17:31:32;0.60;;;0.40;;
42518;SDS011;28147;47.520;18.920;2022-09-27T17:33:58;0.47;;;0.40;;
42518;SDS011;28147;47.520;18.920;2022-09-27T17:36:25;1.50;;;0.45;;
42518;SDS011;28147;47.520;18.920;2022-09-27T17:38:53;2.05;;;0.80;;
42518;SDS011;28147;47.520;18.920;2022-09-27T17:41:22;1.85;;;1.08;;
42518;SDS011;28147;47.520;18.920;2022-09-27T17:43:57;1.33;;;0.50;;
42518;SDS011;28147;47.520;18.920;2022-09-27T17:46:25;0.47;;;0.38;;
42518;SDS011;28147;47.520;18.920;2022-09-27T17:48:52;0.85;;;0.50;;
42518;SDS011;28147;47.520;18.920;2022-09-27T17:51:38;0.80;;;0.50;;
42518;SDS011;28147;47.520;18.920;2022-09-27T17:54:05;2.65;;;0.70;;
42518;SDS011;28147;47.520;18.920;2022-09-27T17:56:34;0.77;;;0.60;;
42518;SDS011;28147;47.520;18.920;2022-09-27T17:59:03;1.83;;;0.80;;